Time;durP1;ratioP1;P1;durP2;ratioP2;P2;SDS_P1;SDS_P2;PMS_P1;PMS_P2;Temp;Humidity;BMP_temperature;BMP_pressure;BME280_temperature;BME280_humidity;BME280_pressure;Samples;Min_cycle;Max_cycle;Signal;HPM_P1;HPM_P2
2022/01/31 00:00:13;;;;;;;12.52;2.05;;;4.80;99.90;;;;;;5114838;28;20059;-71
2022/01/31 00:02:40;;;;;;;12.07;2.00;;;4.50;99.90;;;;;;5114020;28;20100;-71
2022/01/31 00:05:06;;;;;;;17.17;2.15;;;4.90;99.90;;;;;;5114486;28;20047;-71
2022/01/31 00:07:32;;;;;;;14.38;2.42;;;4.60;99.90;;;;;;5112712;28;20054;-71
2022/01/31 00:09:58;;;;;;;9.88;2.35;;;4.50;99.90;;;;;;5112714;28;20047;-72
2022/01/31 00:12:29;;;;;;;13.15;2.10;;;4.40;99.90;;;;;;5112648;28;20046;-72
2022/01/31 00:15:01;;;;;;;5.80;1.63;;;4.90;99.90;;;;;;5118038;28;20048;-72
2022/01/31 00:17:27;;;;;;;11.55;2.28;;;4.70;99.90;;;;;;5118355;28;20044;-72
2022/01/31 00:19:52;;;;;;;10.45;2.05;;;4.40;99.90;;;;;;5117627;28;20093;-71
2022/01/31 00:22:18;;;;;;;11.77;1.75;;;5.20;99.90;;;;;;5116712;28;20054;-72
2022/01/31 00:24:44;;;;;;;13.27;2.35;;;4.60;99.90;;;;;;5116621;28;20085;-71
2022/01/31 00:27:10;;;;;;;15.20;1.95;;;4.80;99.90;;;;;;5117822;28;20044;-71
2022/01/31 00:29:35;;;;;;;11.95;2.33;;;4.50;99.90;;;;;;5117757;28;20047;-71
2022/01/31 00:32:01;;;;;;;8.88;2.15;;;4.30;99.90;;;;;;5116474;28;20039;-71
2022/01/31 00:34:27;;;;;;;13.68;2.20;;;4.40;99.90;;;;;;5116122;28;20126;-71
2022/01/31 00:36:54;;;;;;;8.90;1.95;;;4.50;99.90;;;;;;5116633;28;20083;-71
2022/01/31 00:39:20;;;;;;;10.75;2.85;;;5.00;99.90;;;;;;5100324;28;20039;-71
2022/01/31 00:41:46;;;;;;;13.23;2.50;;;4.30;99.90;;;;;;5117961;28;20047;-72
2022/01/31 00:44:26;;;;;;;10.30;2.10;;;4.40;99.90;;;;;;5116553;28;20383;-71
2022/01/31 00:47:34;;;;;;;11.73;2.35;;;4.50;99.90;;;;;;5117210;28;20546;-71
2022/01/31 00:49:48;;;;;;;15.80;2.80;;;4.70;99.90;;;;;;5111569;28;20087;-71
2022/01/31 00:52:14;;;;;;;14.40;2.42;;;4.50;99.90;;;;;;5117361;27;20040;-71
2022/01/31 00:54:39;;;;;;;10.88;2.50;;;4.40;99.90;;;;;;5117136;28;20044;-70
2022/01/31 00:57:05;;;;;;;10.05;2.90;;;4.70;99.90;;;;;;5116875;28;20524;-71
2022/01/31 00:59:31;;;;;;;10.15;2.58;;;4.80;99.90;;;;;;5117221;27;20046;-71
2022/01/31 01:01:57;;;;;;;12.50;3.17;;;4.50;99.90;;;;;;5099001;28;20040;-71
2022/01/31 01:04:22;;;;;;;9.43;3.95;;;4.90;99.90;;;;;;5116192;28;20083;-71
2022/01/31 01:06:48;;;;;;;13.15;3.15;;;4.90;99.90;;;;;;5117080;27;20454;-71
2022/01/31 01:09:14;;;;;;;12.68;3.55;;;4.60;99.90;;;;;;5117070;27;20052;-71
2022/01/31 01:11:40;;;;;;;11.10;3.40;;;4.60;99.90;;;;;;5116833;28;20129;-71
2022/01/31 01:14:06;;;;;;;13.10;3.58;;;4.60;99.90;;;;;;5116650;28;20502;-71
2022/01/31 01:16:32;;;;;;;16.15;4.65;;;4.80;99.90;;;;;;5115756;28;20043;-71
2022/01/31 01:18:57;;;;;;;12.52;3.65;;;4.80;99.90;;;;;;5099269;28;20437;-72
2022/01/31 01:21:23;;;;;;;16.02;4.28;;;4.50;99.90;;;;;;5115778;28;20043;-71
2022/01/31 01:23:49;;;;;;;10.50;3.60;;;4.60;99.90;;;;;;5116765;28;20047;-71
2022/01/31 01:26:15;;;;;;;15.23;4.10;;;5.60;99.90;;;;;;5116475;28;20495;-70
2022/01/31 01:28:41;;;;;;;11.52;3.65;;;4.60;99.90;;;;;;5116629;28;20425;-71
2022/01/31 01:31:06;;;;;;;12.20;3.60;;;4.50;99.90;;;;;;5115335;28;20048;-71
2022/01/31 01:33:38;;;;;;;12.32;3.60;;;4.90;99.90;;;;;;5116542;28;20052;-71
2022/01/31 01:36:06;;;;;;;10.73;4.07;;;4.50;99.90;;;;;;5117075;28;20048;-71
2022/01/31 01:38:31;;;;;;;14.05;4.32;;;4.60;99.90;;;;;;5082196;28;20051;-71
2022/01/31 01:40:59;;;;;;;14.35;4.18;;;4.40;99.90;;;;;;5115121;28;20384;-71
2022/01/31 01:43:25;;;;;;;12.55;4.22;;;4.80;99.90;;;;;;5116357;28;20043;-70
2022/01/31 01:45:53;;;;;;;10.70;4.10;;;4.70;99.90;;;;;;5116834;28;20082;-71
2022/01/31 01:48:19;;;;;;;12.25;4.43;;;4.30;99.90;;;;;;5115320;28;20052;-70
2022/01/31 01:50:46;;;;;;;15.13;5.38;;;4.30;99.90;;;;;;5115087;28;20467;-71
2022/01/31 01:53:14;;;;;;;12.63;4.43;;;5.00;99.90;;;;;;5115165;28;20051;-70
2022/01/31 01:55:42;;;;;;;14.48;5.13;;;4.30;99.90;;;;;;5116642;28;20391;-71
2022/01/31 01:58:14;;;;;;;13.63;4.88;;;4.30;99.90;;;;;;5116057;28;20043;-70
2022/01/31 02:00:49;;;;;;;15.40;5.25;;;4.50;99.90;;;;;;5116076;28;20105;-71
2022/01/31 02:03:19;;;;;;;13.35;5.03;;;4.30;99.90;;;;;;5115876;28;20082;-70
2022/01/31 02:05:46;;;;;;;14.52;5.50;;;4.70;99.90;;;;;;5117043;28;20455;-71
2022/01/31 02:08:18;;;;;;;10.75;5.68;;;4.20;99.90;;;;;;5114889;28;20116;-71
2022/01/31 02:10:43;;;;;;;13.82;6.05;;;4.50;99.90;;;;;;5115633;28;20123;-71
2022/01/31 02:13:10;;;;;;;15.82;6.57;;;4.00;99.90;;;;;;5115747;28;20134;-71
2022/01/31 02:15:37;;;;;;;12.82;6.25;;;3.90;99.90;;;;;;5115698;28;20050;-71
2022/01/31 02:18:04;;;;;;;14.82;6.13;;;4.20;99.90;;;;;;5114500;28;20044;-71
2022/01/31 02:20:30;;;;;;;18.00;6.47;;;4.00;99.90;;;;;;5114652;28;20062;-71
2022/01/31 02:22:57;;;;;;;15.82;7.00;;;4.10;99.90;;;;;;5115599;28;20054;-71
2022/01/31 02:25:23;;;;;;;17.98;6.90;;;3.90;99.90;;;;;;5114202;28;20043;-71
2022/01/31 02:27:49;;;;;;;13.45;6.47;;;4.50;99.90;;;;;;5115474;28;20047;-72
2022/01/31 02:30:16;;;;;;;16.85;7.18;;;4.10;99.90;;;;;;5115321;28;20044;-72
2022/01/31 02:32:42;;;;;;;14.32;6.45;;;4.00;99.90;;;;;;5115672;28;20039;-72
2022/01/31 02:35:11;;;;;;;13.35;7.35;;;4.00;99.90;;;;;;5115029;28;20550;-72
2022/01/31 02:37:37;;;;;;;12.88;7.28;;;4.00;99.90;;;;;;5113254;28;20563;-72
2022/01/31 02:40:03;;;;;;;14.23;6.93;;;3.80;99.90;;;;;;5115121;28;20039;-72
2022/01/31 02:42:29;;;;;;;14.93;7.70;;;3.70;99.90;;;;;;5114229;28;20051;-72
2022/01/31 02:44:55;;;;;;;14.80;7.93;;;3.50;99.90;;;;;;5080133;28;20040;-72
2022/01/31 02:47:27;;;;;;;14.48;8.18;;;3.90;99.90;;;;;;5115047;28;20070;-73
2022/01/31 02:49:59;;;;;;;17.05;8.38;;;3.90;99.90;;;;;;5115553;28;20043;-72
2022/01/31 02:52:29;;;;;;;16.10;7.63;;;3.60;99.90;;;;;;5115835;27;20047;-72
2022/01/31 02:54:55;;;;;;;15.27;8.18;;;3.50;99.90;;;;;;5114970;28;20443;-72
2022/01/31 02:57:21;;;;;;;14.25;7.30;;;3.40;99.90;;;;;;5113215;28;20139;-73
2022/01/31 02:59:47;;;;;;;15.20;7.53;;;4.20;99.90;;;;;;5113675;28;20394;-72
2022/01/31 03:02:14;;;;;;;11.13;7.65;;;3.50;99.90;;;;;;5114710;28;20047;-71
2022/01/31 03:04:40;;;;;;;15.95;8.25;;;4.20;99.90;;;;;;5113622;28;20445;-72
2022/01/31 03:07:05;;;;;;;15.32;8.93;;;3.20;99.90;;;;;;5097131;28;20039;-71
2022/01/31 03:09:31;;;;;;;16.23;9.15;;;3.30;99.90;;;;;;5114661;28;20078;-72
2022/01/31 03:11:58;;;;;;;14.98;8.77;;;3.00;99.90;;;;;;5113270;28;20043;-72
2022/01/31 03:14:24;;;;;;;13.98;8.63;;;3.40;99.90;;;;;;5114887;28;20051;-71
2022/01/31 03:16:50;;;;;;;15.43;9.10;;;3.20;99.90;;;;;;5115366;28;20127;-71
2022/01/31 03:19:17;;;;;;;12.45;8.43;;;4.00;99.90;;;;;;5115361;28;20066;-72
2022/01/31 03:21:43;;;;;;;14.30;8.82;;;3.60;99.90;;;;;;5114373;28;20035;-72
2022/01/31 03:24:10;;;;;;;16.85;9.40;;;3.40;99.90;;;;;;5112885;28;20047;-71
2022/01/31 03:26:36;;;;;;;14.75;9.30;;;3.40;99.90;;;;;;5113413;28;20043;-72
2022/01/31 03:29:03;;;;;;;13.40;8.80;;;3.70;99.90;;;;;;5113682;28;20043;-71
2022/01/31 03:31:30;;;;;;;16.08;8.77;;;3.80;99.90;;;;;;5113888;28;20043;-72
2022/01/31 03:33:56;;;;;;;15.25;8.18;;;3.60;99.90;;;;;;5114240;28;20050;-72
2022/01/31 03:36:22;;;;;;;13.48;8.38;;;3.40;99.90;;;;;;5114285;28;20040;-72
2022/01/31 03:38:48;;;;;;;14.35;8.07;;;3.70;99.90;;;;;;5113149;28;20096;-72
2022/01/31 03:41:17;;;;;;;12.63;7.32;;;3.70;99.90;;;;;;5114388;28;20454;-71
2022/01/31 03:43:43;;;;;;;11.25;7.22;;;3.60;99.90;;;;;;5114168;28;20048;-72
2022/01/31 03:46:09;;;;;;;12.80;7.45;;;3.60;99.90;;;;;;5112937;28;20123;-72
2022/01/31 03:48:35;;;;;;;9.07;5.93;;;4.30;99.90;;;;;;5113833;28;20055;-72
2022/01/31 03:51:02;;;;;;;10.05;6.90;;;3.60;99.90;;;;;;5114540;28;20070;-71
2022/01/31 03:53:29;;;;;;;8.73;6.00;;;3.60;99.90;;;;;;5112912;28;20048;-71
2022/01/31 03:55:55;;;;;;;9.05;5.75;;;3.60;99.90;;;;;;5113735;28;20047;-71
2022/01/31 03:58:21;;;;;;;10.35;6.35;;;3.60;99.90;;;;;;5114014;28;20116;-71
2022/01/31 04:00:47;;;;;;;9.48;6.38;;;4.20;99.90;;;;;;5114107;28;20047;-71
2022/01/31 04:03:13;;;;;;;9.32;6.32;;;4.10;99.90;;;;;;5114467;28;20440;-71
2022/01/31 04:05:39;;;;;;;9.65;6.13;;;3.60;99.90;;;;;;5112790;28;20078;-71
2022/01/31 04:08:06;;;;;;;8.13;5.97;;;3.40;99.90;;;;;;5113937;28;20052;-71
2022/01/31 04:10:33;;;;;;;7.95;5.72;;;4.30;99.90;;;;;;5113744;28;20180;-71
2022/01/31 04:12:59;;;;;;;7.00;5.18;;;3.70;99.90;;;;;;5113725;28;20055;-71
2022/01/31 04:15:25;;;;;;;8.23;5.45;;;4.00;99.90;;;;;;5113893;28;20051;-71
2022/01/31 04:17:50;;;;;;;8.57;5.05;;;3.70;99.90;;;;;;5113633;28;20070;-71
2022/01/31 04:20:18;;;;;;;8.18;5.45;;;3.90;99.90;;;;;;5113853;28;20043;-71
2022/01/31 04:23:00;;;;;;;9.45;4.95;;;3.60;99.90;;;;;;5114380;28;20047;-71
2022/01/31 04:25:41;;;;;;;8.85;5.72;;;3.80;99.90;;;;;;5113892;28;20052;-71
2022/01/31 04:28:16;;;;;;;12.73;6.80;;;3.70;99.90;;;;;;5113808;28;20054;-71
2022/01/31 04:30:49;;;;;;;8.50;5.35;;;4.60;99.90;;;;;;5113946;28;20071;-70
2022/01/31 04:33:15;;;;;;;12.57;3.72;;;3.80;99.90;;;;;;5114291;28;20040;-71
2022/01/31 04:35:41;;;;;;;6.75;3.10;;;3.70;99.90;;;;;;5112939;28;20391;-70
2022/01/31 04:38:06;;;;;;;10.25;2.22;;;4.20;99.90;;;;;;5113673;28;20461;-70
2022/01/31 04:40:32;;;;;;;10.27;1.63;;;4.60;99.90;;;;;;5113549;28;20122;-70
2022/01/31 04:42:58;;;;;;;6.72;1.55;;;4.30;99.90;;;;;;5113456;28;20046;-70
2022/01/31 04:45:24;;;;;;;5.35;0.88;;;4.40;99.90;;;;;;5112605;28;20044;-70
2022/01/31 04:47:50;;;;;;;7.38;0.88;;;4.60;99.90;;;;;;5095137;28;20089;-71
2022/01/31 04:50:16;;;;;;;2.40;0.50;;;4.90;99.90;;;;;;5113491;28;20044;-70
2022/01/31 04:52:42;;;;;;;2.60;0.40;;;4.60;99.90;;;;;;5113538;28;20074;-70
2022/01/31 04:55:09;;;;;;;2.63;0.65;;;4.70;99.90;;;;;;5112343;28;20084;-71
2022/01/31 04:57:36;;;;;;;3.67;0.40;;;4.60;99.90;;;;;;5094978;28;20078;-71
2022/01/31 05:00:04;;;;;;;4.53;0.40;;;4.90;99.90;;;;;;5113315;28;20046;-71
2022/01/31 05:02:30;;;;;;;5.32;0.80;;;4.60;99.90;;;;;;5116589;28;20058;-71
2022/01/31 05:04:56;;;;;;;5.10;0.80;;;4.40;99.90;;;;;;5116825;28;20043;-70
2022/01/31 05:07:22;;;;;;;2.90;0.35;;;5.10;99.90;;;;;;5117098;28;20123;-71
2022/01/31 05:09:48;;;;;;;3.00;0.50;;;4.80;99.90;;;;;;5117076;28;20498;-71
2022/01/31 05:12:14;;;;;;;4.72;0.50;;;4.60;99.90;;;;;;5098697;28;20048;-71
2022/01/31 05:14:39;;;;;;;5.05;1.00;;;4.70;99.90;;;;;;5116220;28;20043;-71
2022/01/31 05:17:05;;;;;;;8.20;1.33;;;4.50;99.90;;;;;;5117426;28;20490;-71
2022/01/31 05:19:31;;;;;;;9.13;1.48;;;4.60;99.90;;;;;;5117089;28;20047;-71
2022/01/31 05:21:57;;;;;;;8.68;0.95;;;5.30;99.90;;;;;;5116804;28;20391;-71
2022/01/31 05:24:22;;;;;;;7.03;1.40;;;5.00;99.90;;;;;;5115558;28;20042;-71
2022/01/31 05:26:50;;;;;;;7.07;1.05;;;4.80;99.90;;;;;;5116536;28;20046;-71
2022/01/31 05:29:21;;;;;;;9.10;1.20;;;4.60;99.90;;;;;;5081832;28;20051;-71
2022/01/31 05:31:48;;;;;;;8.88;1.02;;;5.10;99.90;;;;;;5116106;28;20051;-71
2022/01/31 05:34:17;;;;;;;10.65;1.13;;;4.70;99.90;;;;;;5116647;27;20048;-71
2022/01/31 05:36:43;;;;;;;14.00;1.00;;;4.90;99.90;;;;;;5115354;28;20048;-71
2022/01/31 05:39:08;;;;;;;6.32;1.30;;;5.00;99.90;;;;;;5115531;28;20112;-71
2022/01/31 05:41:34;;;;;;;9.80;0.80;;;4.90;99.90;;;;;;5081342;28;20459;-72
2022/01/31 05:44:00;;;;;;;8.20;1.45;;;4.90;99.90;;;;;;5116413;28;20069;-71
2022/01/31 05:46:26;;;;;;;7.60;1.45;;;5.40;99.90;;;;;;5115229;28;20483;-72
2022/01/31 05:48:53;;;;;;;5.03;0.57;;;5.10;99.90;;;;;;5115068;28;20044;-72
2022/01/31 05:51:22;;;;;;;4.18;0.60;;;5.20;99.90;;;;;;5116145;28;20048;-74
2022/01/31 05:53:49;;;;;;;5.18;1.00;;;5.10;99.90;;;;;;5116133;28;20054;-72
2022/01/31 05:56:17;;;;;;;7.57;0.88;;;5.10;99.90;;;;;;5114676;28;20060;-72
2022/01/31 05:58:44;;;;;;;4.60;0.70;;;5.00;99.90;;;;;;5116010;28;20048;-72
2022/01/31 06:01:10;;;;;;;6.20;0.50;;;5.60;99.90;;;;;;5116523;28;20369;-72
2022/01/31 06:03:37;;;;;;;3.90;0.77;;;5.40;99.90;;;;;;5116550;28;20396;-73
2022/01/31 06:06:03;;;;;;;5.35;1.13;;;5.50;99.90;;;;;;5114985;28;20047;-71
2022/01/31 06:08:30;;;;;;;4.88;0.82;;;4.70;99.90;;;;;;5116446;28;20036;-72
2022/01/31 06:10:56;;;;;;;3.60;0.45;;;5.10;99.90;;;;;;5097270;28;20395;-73
2022/01/31 06:13:29;;;;;;;6.40;0.63;;;5.40;99.90;;;;;;5115786;28;20050;-72
2022/01/31 06:15:54;;;;;;;5.07;0.70;;;5.00;99.90;;;;;;5115080;28;20047;-72
2022/01/31 06:18:20;;;;;;;4.75;0.85;;;4.90;99.90;;;;;;5115740;28;20490;-72
2022/01/31 06:20:46;;;;;;;6.32;0.70;;;5.10;99.90;;;;;;5114687;28;20116;-72
2022/01/31 06:23:12;;;;;;;6.68;1.17;;;4.80;99.90;;;;;;5115930;28;20051;-72
2022/01/31 06:25:39;;;;;;;7.55;0.70;;;5.50;99.90;;;;;;5115588;28;20070;-72
2022/01/31 06:28:06;;;;;;;5.32;0.57;;;5.20;99.90;;;;;;5115271;28;20048;-72
2022/01/31 06:30:33;;;;;;;3.97;0.60;;;4.80;99.90;;;;;;5115362;28;20092;-72
2022/01/31 06:32:59;;;;;;;1.75;0.45;;;5.00;99.90;;;;;;5115419;28;20126;-73
2022/01/31 06:35:25;;;;;;;5.53;0.60;;;4.80;99.90;;;;;;5097200;28;20196;-72
2022/01/31 06:37:52;;;;;;;6.15;0.68;;;5.10;99.90;;;;;;5115278;28;20047;-72
2022/01/31 06:40:18;;;;;;;3.67;0.40;;;4.80;99.90;;;;;;5115162;28;20039;-72
2022/01/31 06:42:44;;;;;;;4.47;0.40;;;5.10;99.90;;;;;;5114000;28;20051;-72
2022/01/31 06:45:10;;;;;;;7.03;0.63;;;5.50;99.90;;;;;;5114263;28;20044;-72
2022/01/31 06:47:36;;;;;;;3.60;0.50;;;5.00;99.90;;;;;;5115134;28;20089;-72
2022/01/31 06:50:06;;;;;;;5.40;0.70;;;4.60;99.90;;;;;;5115077;28;20122;-72
2022/01/31 06:52:36;;;;;;;4.85;0.60;;;4.80;99.90;;;;;;5115102;28;20126;-72
2022/01/31 06:55:05;;;;;;;6.63;0.60;;;5.10;99.90;;;;;;5114669;28;20079;-73
2022/01/31 06:57:33;;;;;;;5.57;0.77;;;4.50;99.90;;;;;;5116072;28;20059;-74
2022/01/31 07:00:06;;;;;;;7.57;0.90;;;4.80;99.90;;;;;;5115996;28;20062;-72
2022/01/31 07:02:32;;;;;;;4.57;0.60;;;4.70;99.90;;;;;;5098502;28;20043;-71
2022/01/31 07:05:00;;;;;;;4.35;0.57;;;5.00;99.90;;;;;;5114575;28;20044;-74
2022/01/31 07:07:27;;;;;;;5.57;0.70;;;4.80;99.90;;;;;;5115255;28;20391;-74
2022/01/31 07:09:55;;;;;;;5.35;0.50;;;4.80;99.90;;;;;;5114662;28;20437;-74
2022/01/31 07:12:28;;;;;;;3.70;0.90;;;4.80;99.90;;;;;;5114565;28;20047;-74
2022/01/31 07:14:54;;;;;;;5.70;0.73;;;4.70;99.90;;;;;;5098563;28;20055;-74
2022/01/31 07:17:20;;;;;;;5.65;0.60;;;4.70;99.90;;;;;;5114265;28;20051;-74
2022/01/31 07:19:45;;;;;;;7.03;0.60;;;4.90;99.90;;;;;;5113509;28;20047;-74
2022/01/31 07:22:14;;;;;;;5.80;0.68;;;4.70;99.90;;;;;;5114571;28;20044;-74
2022/01/31 07:27:06;;;;;;;5.68;0.82;;;5.00;99.90;;;;;;5114404;28;20054;-73
2022/01/31 07:29:33;;;;;;;3.80;0.60;;;4.70;99.90;;;;;;5113124;28;20071;-74
2022/01/31 07:32:00;;;;;;;5.93;0.90;;;4.70;99.90;;;;;;5096309;28;20040;-73
2022/01/31 07:34:27;;;;;;;8.00;1.00;;;5.10;99.90;;;;;;5113999;28;20487;-74
2022/01/31 07:36:53;;;;;;;5.03;0.60;;;5.10;99.90;;;;;;5114842;28;20467;-74
2022/01/31 07:39:19;;;;;;;4.78;0.70;;;4.50;99.90;;;;;;5096066;28;20096;-74
2022/01/31 07:41:46;;;;;;;10.10;1.00;;;5.20;99.90;;;;;;5113162;28;20040;-74
2022/01/31 07:44:13;;;;;;;6.05;0.93;;;4.90;99.90;;;;;;5114165;28;20083;-74
2022/01/31 07:46:39;;;;;;;4.78;0.60;;;4.90;99.90;;;;;;5114726;28;20402;-73
2022/01/31 07:49:06;;;;;;;8.18;0.60;;;4.90;99.90;;;;;;5114224;28;20058;-74
2022/01/31 07:51:35;;;;;;;3.05;0.50;;;4.90;99.90;;;;;;5113963;28;20032;-74
2022/01/31 07:54:01;;;;;;;5.28;0.80;;;5.80;99.90;;;;;;5113115;28;20402;-74
2022/01/31 07:56:27;;;;;;;6.32;0.60;;;5.20;99.90;;;;;;5112827;28;20066;-73
2022/01/31 07:58:53;;;;;;;4.47;0.85;;;4.90;99.90;;;;;;5113998;28;20091;-74
2022/01/31 08:01:18;;;;;;;5.53;0.60;;;5.50;99.90;;;;;;5114096;28;20079;-74
2022/01/31 08:03:45;;;;;;;5.63;1.00;;;4.80;99.90;;;;;;5113494;28;20448;-74
2022/01/31 08:06:11;;;;;;;4.95;0.65;;;5.30;99.90;;;;;;5096953;28;20528;-73
2022/01/31 08:08:37;;;;;;;5.22;0.50;;;4.80;99.90;;;;;;5114073;28;20083;-74
2022/01/31 08:11:05;;;;;;;5.40;0.90;;;5.50;99.90;;;;;;5112768;28;20039;-73
2022/01/31 08:13:33;;;;;;;2.65;0.68;;;4.90;99.90;;;;;;5114026;28;20058;-73
2022/01/31 08:18:27;;;;;;;4.63;0.70;;;5.30;99.90;;;;;;5114243;28;20051;-74
2022/01/31 08:20:53;;;;;;;2.85;0.80;;;5.10;99.90;;;;;;5096025;28;20051;-74
2022/01/31 08:23:19;;;;;;;4.93;0.75;;;5.40;99.90;;;;;;5112641;28;20051;-74
2022/01/31 08:25:48;;;;;;;10.50;1.05;;;5.00;99.90;;;;;;5096088;28;20055;-74
2022/01/31 08:28:19;;;;;;;6.97;0.80;;;5.10;99.90;;;;;;5113975;28;20055;-75
2022/01/31 08:30:56;;;;;;;8.23;0.75;;;5.10;99.90;;;;;;5079641;28;20494;-74
2022/01/31 08:34:07;;;;;;;5.47;0.85;;;5.00;99.90;;;;;;5113749;28;20130;-74
2022/01/31 08:36:11;;;;;;;2.78;0.52;;;5.20;99.90;;;;;;5109376;28;20083;-74
2022/01/31 08:38:45;;;;;;;6.07;0.60;;;5.40;99.90;;;;;;5099710;28;20052;-74
2022/01/31 08:41:11;;;;;;;;;;;5.10;99.90;;;;;;5123516;28;20052;-75
2022/01/31 08:43:38;;;;;;;5.05;0.70;;;5.50;99.90;;;;;;5117707;28;19965;-75
2022/01/31 08:46:06;;;;;;;3.45;0.90;;;5.90;99.90;;;;;;5117714;28;20136;-74
2022/01/31 08:48:32;;;;;;;11.43;0.88;;;5.70;99.90;;;;;;5099410;28;20047;-77
2022/01/31 08:50:58;;;;;;;10.05;0.65;;;5.50;99.90;;;;;;5117620;28;20051;-75
2022/01/31 08:53:24;;;;;;;5.95;0.80;;;5.20;99.90;;;;;;5116593;28;20043;-77
2022/01/31 08:55:55;;;;;;;6.60;1.00;;;5.30;99.90;;;;;;5120393;28;20455;-75
2022/01/31 08:58:22;;;;;;;5.55;1.05;;;5.50;99.90;;;;;;5117471;28;20051;-76
2022/01/31 09:00:51;;;;;;;2.53;0.63;;;6.00;99.90;;;;;;5117115;27;20483;-76
2022/01/31 09:05:43;;;;;;;4.50;0.70;;;5.30;99.90;;;;;;5117048;28;20490;-76
2022/01/31 09:08:09;;;;;;;7.10;0.60;;;5.40;99.90;;;;;;5116276;28;20048;-75
2022/01/31 09:10:35;;;;;;;5.88;0.80;;;5.20;99.90;;;;;;5115847;28;20036;-74
2022/01/31 09:13:01;;;;;;;7.93;0.90;;;5.50;99.90;;;;;;5117172;27;20085;-74
2022/01/31 09:15:27;;;;;;;5.45;0.50;;;5.70;99.90;;;;;;5117103;28;20048;-75
2022/01/31 09:17:53;;;;;;;6.75;0.95;;;5.70;99.90;;;;;;5117053;28;20051;-74
2022/01/31 09:20:19;;;;;;;4.93;0.55;;;6.00;99.90;;;;;;5116750;28;20035;-75
2022/01/31 09:22:45;;;;;;;2.20;0.57;;;5.60;99.90;;;;;;5099034;28;20122;-75
2022/01/31 09:25:12;;;;;;;3.05;0.52;;;5.50;99.90;;;;;;5116638;28;20143;-75
2022/01/31 09:27:37;;;;;;;8.32;0.70;;;5.60;99.90;;;;;;5115641;28;20051;-74
2022/01/31 09:30:05;;;;;;;9.73;1.10;;;5.70;99.90;;;;;;5115637;28;20062;-76
2022/01/31 09:32:30;;;;;;;6.97;0.77;;;5.70;99.90;;;;;;5116087;28;20051;-75
2022/01/31 09:34:56;;;;;;;6.32;0.80;;;5.90;99.90;;;;;;5115835;28;20036;-74
2022/01/31 09:37:22;;;;;;;7.40;0.88;;;5.70;99.90;;;;;;5116714;27;20481;-74
2022/01/31 09:39:49;;;;;;;5.43;0.93;;;5.90;99.90;;;;;;5116555;28;20043;-74
2022/01/31 09:42:25;;;;;;;7.18;1.00;;;6.40;99.90;;;;;;5116466;28;20075;-74
2022/01/31 09:50:21;;;;;;;4.47;0.77;;;6.00;99.90;;;;;;5078327;28;20131;-74
2022/01/31 09:52:46;;;;;;;7.80;1.23;;;6.10;99.90;;;;;;5115128;28;20040;-75
2022/01/31 09:55:12;;;;;;;7.95;1.20;;;5.60;99.90;;;;;;5116953;28;20100;-75
2022/01/31 09:57:38;;;;;;;12.65;1.88;;;6.50;99.90;;;;;;5114618;28;20138;-75
2022/01/31 10:00:06;;;;;;;6.75;0.98;;;6.00;99.90;;;;;;5116232;28;20063;-75
2022/01/31 10:02:32;;;;;;;7.40;0.80;;;6.00;99.90;;;;;;5116164;28;20051;-76
2022/01/31 10:04:58;;;;;;;13.23;1.42;;;6.20;99.90;;;;;;5116242;28;20051;-75
2022/01/31 10:07:23;;;;;;;7.28;1.02;;;6.00;99.90;;;;;;5114928;28;20425;-75
2022/01/31 10:09:50;;;;;;;11.00;1.65;;;6.60;99.90;;;;;;5114896;28;20077;-75
2022/01/31 10:17:42;;;;;;;3.75;0.68;;;6.50;99.90;;;;;;5116494;28;20111;-76
2022/01/31 10:20:25;;;;;;;4.95;0.80;;;6.50;99.90;;;;;;5115521;28;20050;-76
2022/01/31 10:22:51;;;;;;;5.95;0.70;;;6.40;99.90;;;;;;5116307;27;20093;-76
2022/01/31 10:25:19;;;;;;;8.40;0.93;;;6.40;99.90;;;;;;5115338;28;20209;-76
2022/01/31 10:27:47;;;;;;;3.25;0.60;;;7.20;99.90;;;;;;5114895;28;20384;-75
2022/01/31 10:30:17;;;;;;;6.55;0.98;;;6.50;99.90;;;;;;5113886;28;20108;-76
2022/01/31 10:32:47;;;;;;;2.95;0.68;;;6.50;99.90;;;;;;5113533;28;20134;-76
2022/01/31 10:35:23;;;;;;;11.52;0.90;;;6.50;99.90;;;;;;5114035;28;20388;-77
2022/01/31 10:37:53;;;;;;;9.02;1.08;;;6.90;99.90;;;;;;5113798;28;20103;-72
2022/01/31 10:54:53;;;;;;;6.75;0.52;;;6.90;99.90;;;;;;5113276;28;20049;-74
2022/01/31 10:57:14;;;;;;;4.32;0.65;;;5.70;99.90;;;;;;5108003;28;20059;-76
2022/01/31 10:59:42;;;;;;;9.35;0.80;;;7.00;99.90;;;;;;5113337;28;20112;-74
2022/01/31 11:02:15;;;;;;;5.57;0.65;;;6.90;99.90;;;;;;5113859;28;20074;-73
2022/01/31 11:04:42;;;;;;;3.90;0.65;;;6.90;99.90;;;;;;5113383;28;20062;-72
2022/01/31 11:07:12;;;;;;;6.20;0.93;;;7.00;99.90;;;;;;5113852;28;20043;-75
2022/01/31 11:09:40;;;;;;;7.90;0.77;;;6.90;99.90;;;;;;5114189;28;20046;-74
2022/01/31 11:12:08;;;;;;;6.72;0.82;;;7.10;99.90;;;;;;5096113;28;20040;-74
2022/01/31 11:14:37;;;;;;;6.95;1.15;;;7.20;99.90;;;;;;5112571;28;20483;-75
2022/01/31 11:17:11;;;;;;;8.40;0.85;;;7.20;99.90;;;;;;5112272;28;20101;-74
2022/01/31 11:19:38;;;;;;;4.47;0.73;;;7.20;99.90;;;;;;5112175;28;20048;-75
2022/01/31 11:22:10;;;;;;;10.48;1.30;;;7.40;99.90;;;;;;5114125;28;20036;-75
2022/01/31 11:24:45;;;;;;;7.55;0.90;;;7.30;99.90;;;;;;5113654;28;20095;-74
2022/01/31 11:27:13;;;;;;;5.85;0.90;;;7.50;99.90;;;;;;5112703;28;20134;-76
2022/01/31 11:29:45;;;;;;;7.35;1.00;;;7.50;99.90;;;;;;5098238;28;20044;-74
2022/01/31 11:32:12;;;;;;;5.35;0.93;;;7.40;99.90;;;;;;5116278;28;20054;-76
2022/01/31 11:34:40;;;;;;;6.90;0.80;;;7.50;99.90;;;;;;5113968;28;20059;-76
2022/01/31 11:37:11;;;;;;;9.57;1.15;;;7.40;99.90;;;;;;5095669;28;20139;-76
2022/01/31 11:39:41;;;;;;;9.10;1.10;;;8.10;99.90;;;;;;5113502;28;20086;-78
2022/01/31 11:42:08;;;;;;;5.30;1.15;;;7.50;99.90;;;;;;5113470;28;20435;-77
2022/01/31 11:44:54;;;;;;;7.55;1.20;;;7.50;99.90;;;;;;5113799;28;20052;-76
2022/01/31 11:47:25;;;;;;;8.40;1.10;;;7.50;99.90;;;;;;5095570;28;20169;-77
2022/01/31 11:49:55;;;;;;;10.27;1.02;;;7.60;99.90;;;;;;5095241;28;20051;-75
2022/01/31 11:52:22;;;;;;;5.93;0.90;;;7.70;99.90;;;;;;5113717;28;20053;-73
2022/01/31 11:54:54;;;;;;;8.65;0.90;;;7.90;99.90;;;;;;5113898;28;20055;-76
2022/01/31 11:57:32;;;;;;;8.18;1.33;;;7.50;99.90;;;;;;5111724;28;20498;-77
2022/01/31 12:00:01;;;;;;;11.38;1.48;;;7.70;99.90;;;;;;5112239;28;20494;-76
2022/01/31 12:02:31;;;;;;;11.07;1.50;;;7.70;99.90;;;;;;5113606;28;20071;-73
2022/01/31 12:05:05;;;;;;;11.07;1.65;;;7.60;99.90;;;;;;5096262;28;20040;-75
2022/01/31 12:07:42;;;;;;;7.97;1.13;;;7.50;99.90;;;;;;5112913;28;20132;-76
2022/01/31 12:10:26;;;;;;;7.95;1.50;;;7.50;99.90;;;;;;5115712;28;20422;-74
2022/01/31 12:12:57;;;;;;;11.98;1.75;;;7.70;99.90;;;;;;5117108;28;20471;-76
2022/01/31 12:15:44;;;;;;;10.10;1.35;;;7.70;99.90;;;;;;5116561;28;20375;-75
2022/01/31 12:18:41;;;;;;;7.82;1.00;;;7.80;99.90;;;;;;5117328;28;20365;-76
2022/01/31 12:24:27;;;;;;;8.93;1.60;;;7.80;99.90;;;;;;5099734;28;20077;-76
2022/01/31 12:27:20;;;;;;;8.68;1.25;;;7.50;99.90;;;;;;5117367;28;20097;-72
2022/01/31 12:29:52;;;;;;;10.10;1.65;;;7.90;99.90;;;;;;5109831;28;20060;-71
2022/01/31 12:32:35;;;;;;;11.02;1.35;;;7.80;99.90;;;;;;5117491;28;20172;-71
2022/01/31 12:35:10;;;;;;;6.30;1.45;;;7.80;99.90;;;;;;5116039;28;20403;-73
2022/01/31 12:37:41;;;;;;;13.57;1.20;;;8.00;99.90;;;;;;5117049;28;20052;-73
2022/01/31 12:40:19;;;;;;;5.80;1.70;;;7.90;99.90;;;;;;5117968;28;20398;-73
2022/01/31 12:45:36;;;;;;;8.45;1.17;;;8.00;99.90;;;;;;5116684;28;20130;-71
2022/01/31 12:48:08;;;;;;;8.15;1.38;;;8.00;99.90;;;;;;5117017;28;20101;-71
2022/01/31 12:50:39;;;;;;;7.50;1.48;;;7.90;99.90;;;;;;5117707;28;20502;-72
2022/01/31 12:56:10;;;;;;;12.70;1.20;;;8.00;99.90;;;;;;5117320;28;20376;-71
2022/01/31 12:58:42;;;;;;;12.68;1.20;;;7.90;99.90;;;;;;5115934;28;20062;-71
2022/01/31 13:01:23;;;;;;;8.15;1.00;;;8.30;99.90;;;;;;5116285;28;20043;-73
2022/01/31 13:03:58;;;;;;;5.85;0.90;;;7.90;99.90;;;;;;5117024;28;20420;-72
2022/01/31 13:06:45;;;;;;;8.88;0.90;;;7.90;99.90;;;;;;5117648;28;20116;-74
2022/01/31 13:09:17;;;;;;;14.85;1.40;;;7.90;99.90;;;;;;5117276;28;20054;-72
2022/01/31 13:11:56;;;;;;;7.22;0.95;;;8.00;99.90;;;;;;5117154;28;20051;-74
2022/01/31 13:14:31;;;;;;;13.63;1.58;;;8.00;99.90;;;;;;5115952;28;20134;-72
2022/01/31 13:17:11;;;;;;;10.25;1.52;;;8.00;99.90;;;;;;5117697;28;20083;-72
2022/01/31 13:19:47;;;;;;;9.95;1.30;;;7.90;99.90;;;;;;5083080;28;20143;-76
2022/01/31 13:22:32;;;;;;;8.52;1.20;;;7.90;99.90;;;;;;5116023;28;20044;-74
2022/01/31 13:25:13;;;;;;;11.50;1.45;;;7.80;99.90;;;;;;5115504;28;20083;-72
2022/01/31 13:27:42;;;;;;;6.97;1.10;;;7.90;99.90;;;;;;5117685;27;20044;-72
2022/01/31 13:30:15;;;;;;;10.27;1.33;;;7.90;99.90;;;;;;5098841;28;20052;-72
2022/01/31 13:32:41;;;;;;;;;;;7.90;99.90;;;;;;5117249;28;20048;-73
2022/01/31 13:35:08;;;;;;;9.60;1.20;;;7.80;99.90;;;;;;5117014;28;19980;-72
2022/01/31 13:37:42;;;;;;;10.95;1.08;;;7.80;99.90;;;;;;5098948;28;20135;-72
2022/01/31 13:40:19;;;;;;;9.40;1.02;;;7.90;99.90;;;;;;5115508;28;20043;-73